createdAt,value
2019-01-23T00:00:39.633Z,1.4
2019-01-23T00:01:29.388Z,1.4
2019-01-23T00:02:19.725Z,1.4
2019-01-23T00:03:09.241Z,1.4
2019-01-23T00:03:59.557Z,1.4
2019-01-23T00:04:49.900Z,1.4
2019-01-23T00:05:39.958Z,1.4
2019-01-23T00:06:28.906Z,1.4
2019-01-23T00:07:20.057Z,1.4
2019-01-23T00:08:09.847Z,1.4
2019-01-23T00:08:59.638Z,1.4
2019-01-23T00:09:50.247Z,1.4
2019-01-23T00:10:40.307Z,1.4
2019-01-23T00:11:30.132Z,1.4
2019-01-23T00:12:20.450Z,1.4
2019-01-23T00:13:10.462Z,1.4
2019-01-23T00:14:00.569Z,1.4
2019-01-23T00:14:50.622Z,1.4
2019-01-23T00:15:40.365Z,1.4
2019-01-23T00:16:30.699Z,1.4
2019-01-23T00:17:20.487Z,1.4
2019-01-23T00:18:10.535Z,1.4
2019-01-23T00:19:00.879Z,1.4
2019-01-23T00:19:50.372Z,1.4
2019-01-23T00:20:40.996Z,1.4
2019-01-23T00:21:31.047Z,1.4
2019-01-23T00:22:21.104Z,1.4
2019-01-23T00:23:10.884Z,1.4
2019-01-23T00:24:01.211Z,1.4
2019-01-23T00:24:51.005Z,1.4
2019-01-23T00:25:41.327Z,1.4
2019-01-23T00:26:31.116Z,1.5
2019-01-23T00:27:21.166Z,1.4
2019-01-23T00:28:11.223Z,1.4
2019-01-23T00:29:01.306Z,1.4
2019-01-23T00:29:51.061Z,1.5
2019-01-23T00:30:41.675Z,1.5
2019-01-23T00:31:31.737Z,1.5
2019-01-23T00:32:21.511Z,1.5
2019-01-23T00:33:11.842Z,1.5
2019-01-23T00:34:01.631Z,1.5
2019-01-23T00:34:51.966Z,1.5
2019-01-23T00:35:41.748Z,1.5
2019-01-23T00:36:32.102Z,1.5
2019-01-23T00:37:21.898Z,1.5
2019-01-23T00:38:11.918Z,1.5
2019-01-23T00:39:02.250Z,1.5
2019-01-23T00:40:06.973Z,1.5
2019-01-23T00:40:42.378Z,1.5
2019-01-23T00:41:32.148Z,1.5
2019-01-23T00:42:22.510Z,1.5
2019-01-23T00:43:12.268Z,1.5
2019-01-23T00:44:02.635Z,1.5
2019-01-23T00:44:52.653Z,1.5
2019-01-23T00:45:42.453Z,1.5
2019-01-23T00:46:32.233Z,1.5
2019-01-23T00:47:22.555Z,1.5
2019-01-23T00:48:12.891Z,1.5
2019-01-23T00:49:02.988Z,1.5
2019-01-23T00:49:52.993Z,1.5
2019-01-23T00:50:42.805Z,1.5
2019-01-23T00:51:32.552Z,1.5
2019-01-23T00:52:23.163Z,1.5
2019-01-23T00:53:12.960Z,1.5
2019-01-23T00:54:03.279Z,1.5
2019-01-23T00:54:53.059Z,1.5
2019-01-23T00:55:43.394Z,1.5
2019-01-23T00:56:33.182Z,1.5
2019-01-23T00:57:23.234Z,1.5
2019-01-23T00:58:13.287Z,1.5
2019-01-23T00:59:03.077Z,1.5
2019-01-23T00:59:53.734Z,1.5
2019-01-23T01:00:43.752Z,1.5
2019-01-23T01:01:33.254Z,1.5
2019-01-23T01:02:23.898Z,1.5
2019-01-23T01:03:13.909Z,1.5
2019-01-23T01:04:04.219Z,1.5
2019-01-23T01:04:54.039Z,1.5
2019-01-23T01:05:43.817Z,1.5
2019-01-23T01:06:33.879Z,1.5
2019-01-23T01:07:24.201Z,1.5
2019-01-23T01:08:13.980Z,1.5
2019-01-23T01:09:03.766Z,1.5
2019-01-23T01:09:53.541Z,1.5
2019-01-23T01:10:44.251Z,1.5
2019-01-23T01:11:34.486Z,1.5
2019-01-23T01:12:24.546Z,1.5
2019-01-23T01:13:14.600Z,1.5
2019-01-23T01:14:04.141Z,1.5
2019-01-23T01:14:54.723Z,1.5
2019-01-23T01:15:44.226Z,1.5
2019-01-23T01:16:34.825Z,1.5
2019-01-23T01:17:24.613Z,1.5
2019-01-23T01:18:14.948Z,1.5
2019-01-23T01:19:05.003Z,1.5
2019-01-23T01:19:55.050Z,1.5
2019-01-23T01:20:44.838Z,1.5
2019-01-23T01:21:34.888Z,1.5
2019-01-23T01:22:24.956Z,1.5
2019-01-23T01:23:15.290Z,1.5
2019-01-23T01:24:04.798Z,1.5
2019-01-23T01:24:55.408Z,1.6
2019-01-23T01:25:45.453Z,1.5
2019-01-23T01:26:35.240Z,1.5
2019-01-23T01:27:25.022Z,1.5
2019-01-23T01:28:15.092Z,1.5
2019-01-23T01:29:05.697Z,1.6
2019-01-23T01:29:55.752Z,1.5
2019-01-23T01:30:45.540Z,1.5
2019-01-23T01:31:35.870Z,1.6
2019-01-23T01:32:25.645Z,1.5
2019-01-23T01:33:15.707Z,1.6
2019-01-23T01:34:05.755Z,1.6
2019-01-23T01:34:55.829Z,1.6
2019-01-23T01:35:45.885Z,1.6
2019-01-23T01:36:35.372Z,1.6
2019-01-23T01:37:26.304Z,1.6
2019-01-23T01:38:16.044Z,1.6
2019-01-23T01:39:06.105Z,1.6
2019-01-23T01:39:56.443Z,1.6
2019-01-23T01:40:46.491Z,1.6
2019-01-23T01:41:36.281Z,1.6
2019-01-23T01:42:26.326Z,1.6
2019-01-23T01:43:16.669Z,1.6
2019-01-23T01:44:06.439Z,1.6
2019-01-23T01:44:56.509Z,1.6
2019-01-23T01:45:46.844Z,1.6
2019-01-23T01:46:36.616Z,1.6
2019-01-23T01:47:26.949Z,1.6
2019-01-23T01:48:16.751Z,1.6
2019-01-23T01:49:06.810Z,1.6
2019-01-23T01:49:57.124Z,1.6
2019-01-23T01:50:46.920Z,1.6
2019-01-23T01:51:37.247Z,1.6
2019-01-23T01:52:27.289Z,1.6
2019-01-23T01:53:17.119Z,1.6
2019-01-23T01:54:07.418Z,1.6
2019-01-23T01:54:57.455Z,1.6
2019-01-23T01:55:47.531Z,1.6
2019-01-23T01:56:37.306Z,1.6
2019-01-23T01:57:27.640Z,1.6
2019-01-23T01:58:17.418Z,1.6
2019-01-23T01:59:07.496Z,1.6
2019-01-23T01:59:57.556Z,1.6
2019-01-23T02:00:47.318Z,1.6
2019-01-23T02:01:37.933Z,1.6
2019-01-23T02:02:28.032Z,1.6
2019-01-23T02:03:18.253Z,1.6
2019-01-23T02:04:08.115Z,1.6
2019-01-23T02:04:58.153Z,1.6
2019-01-23T02:05:48.220Z,1.6
2019-01-23T02:06:37.725Z,1.6
2019-01-23T02:07:28.059Z,1.6
2019-01-23T02:08:17.845Z,1.6
2019-01-23T02:09:08.172Z,1.6
2019-01-23T02:09:58.551Z,1.5
2019-01-23T02:10:48.557Z,1.6
2019-01-23T02:11:38.344Z,1.5
2019-01-23T02:12:28.664Z,1.5
2019-01-23T02:13:18.737Z,1.6
2019-01-23T02:14:08.794Z,1.5
2019-01-23T02:14:58.289Z,1.5
2019-01-23T02:15:48.949Z,1.4
2019-01-23T02:16:38.681Z,1.5
2019-01-23T02:17:28.740Z,1.4
2019-01-23T02:18:18.804Z,1.4
2019-01-23T02:19:08.576Z,1.4
2019-01-23T02:19:58.644Z,1.4
2019-01-23T02:20:49.251Z,1.4
2019-01-23T02:21:39.314Z,1.4
2019-01-23T02:22:28.819Z,1.4
2019-01-23T02:23:19.409Z,1.4
2019-01-23T02:24:09.216Z,1.4
2019-01-23T02:24:59.261Z,1.4
2019-01-23T02:25:49.593Z,1.4
2019-01-23T02:26:39.376Z,1.3
2019-01-23T02:27:29.429Z,1.3
2019-01-23T02:28:19.513Z,1.3
2019-01-23T02:29:11.856Z,1.3
2019-01-23T02:29:59.935Z,1.3
2019-01-23T02:30:49.379Z,1.3
2019-01-23T02:31:40.000Z,1.3
2019-01-23T02:32:30.051Z,1.3
2019-01-23T02:33:20.119Z,1.3
2019-01-23T02:34:09.623Z,1.3
2019-01-23T02:34:59.408Z,1.3
2019-01-23T02:35:50.031Z,1.3
2019-01-23T02:36:40.375Z,1.3
2019-01-23T02:37:29.601Z,1.3
2019-01-23T02:38:20.470Z,1.3
2019-01-23T02:39:10.536Z,1.3
2019-01-23T02:40:00.805Z,1.3
2019-01-23T02:40:50.070Z,1.3
2019-01-23T02:41:40.698Z,1.3
2019-01-23T02:42:30.752Z,1.3
2019-01-23T02:43:20.820Z,1.3
2019-01-23T02:44:10.860Z,1.3
2019-01-23T02:45:00.923Z,1.3
2019-01-23T02:45:50.763Z,1.3
2019-01-23T02:46:41.061Z,1.3
2019-01-23T02:47:30.534Z,1.3
2019-01-23T02:48:21.163Z,1.2
2019-01-23T02:49:11.258Z,1.3
2019-01-23T02:50:00.981Z,1.2
2019-01-23T02:50:51.324Z,1.2
2019-01-23T02:51:41.117Z,1.2
2019-01-23T02:52:31.477Z,1.2
2019-01-23T02:53:21.247Z,1.2
2019-01-23T02:54:11.582Z,1.2
2019-01-23T02:55:01.555Z,1.2
2019-01-23T02:55:51.389Z,1.1
2019-01-23T02:56:41.186Z,1.1
2019-01-23T02:57:31.774Z,1.2
2019-01-23T02:58:21.856Z,1.2
2019-01-23T02:59:19.249Z,1.1
2019-01-23T03:00:01.403Z,1.1
2019-01-23T03:00:52.043Z,1.1
2019-01-23T03:01:41.531Z,1.1
2019-01-23T03:02:32.139Z,1.1
2019-01-23T03:03:22.427Z,1.1
2019-01-23T03:04:12.026Z,1.1
2019-01-23T03:05:02.321Z,1.1
2019-01-23T03:08:35.090Z,1.1
2019-01-23T03:09:24.610Z,1.1
2019-01-23T03:10:15.223Z,1.1
2019-01-23T03:11:05.302Z,1.1
2019-01-23T03:11:55.328Z,1.1
2019-01-23T03:12:45.394Z,1.1
2019-01-23T03:13:35.443Z,1.1
2019-01-23T03:14:25.484Z,1.2
2019-01-23T03:15:15.271Z,1.1
2019-01-23T03:16:05.608Z,1.1
2019-01-23T03:16:55.387Z,1.1
2019-01-23T03:17:45.518Z,1.2
2019-01-23T03:18:35.492Z,1.1
2019-01-23T03:19:25.830Z,1.1
2019-01-23T03:20:15.620Z,1.1
2019-01-23T03:21:05.970Z,1.1
2019-01-23T03:21:55.990Z,1.1
2019-01-23T03:22:46.077Z,1.1
2019-01-23T03:23:36.111Z,1.1
2019-01-23T03:24:25.908Z,1.1
2019-01-23T03:25:16.239Z,1.1
2019-01-23T03:26:06.010Z,1.1
2019-01-23T03:26:56.065Z,1.1
2019-01-23T03:27:46.452Z,1.1
2019-01-23T03:28:36.487Z,1.1
2019-01-23T03:29:27.154Z,1.1
2019-01-23T03:30:16.657Z,1.1
2019-01-23T03:31:06.751Z,1.1
2019-01-23T03:31:56.791Z,1.1
2019-01-23T03:32:46.929Z,1.1
2019-01-23T03:33:36.555Z,1.1
2019-01-23T03:34:26.879Z,1.1
2019-01-23T03:35:16.673Z,1.1
2019-01-23T03:36:06.984Z,1.1
2019-01-23T03:36:56.764Z,1.1
2019-01-23T03:37:46.815Z,1.1
2019-01-23T03:38:36.882Z,1.1
2019-01-23T03:39:26.650Z,1.1
2019-01-23T03:40:16.987Z,1.1
2019-01-23T03:41:07.039Z,1.1
2019-01-23T03:41:57.359Z,1.1
2019-01-23T03:42:47.437Z,1
2019-01-23T03:43:37.202Z,1.1
2019-01-23T03:44:27.603Z,1
2019-01-23T03:45:17.684Z,1
2019-01-23T03:46:07.654Z,1
2019-01-23T03:46:57.709Z,1
2019-01-23T03:47:47.229Z,0.9
2019-01-23T03:48:37.821Z,1
2019-01-23T03:49:27.896Z,0.9
2019-01-23T03:50:17.944Z,0.9
2019-01-23T03:51:08.003Z,1
2019-01-23T03:51:58.074Z,0.9
2019-01-23T03:52:48.163Z,0.9
2019-01-23T03:53:37.890Z,0.9
2019-01-23T03:54:28.255Z,0.9
2019-01-23T03:55:18.018Z,0.9
2019-01-23T03:56:08.341Z,0.9
2019-01-23T03:56:58.395Z,0.9
2019-01-23T03:57:48.179Z,0.9
2019-01-23T03:58:38.513Z,0.9
2019-01-23T03:59:34.439Z,0.9
2019-01-23T04:00:20.001Z,0.9
2019-01-23T04:01:08.759Z,0.8
2019-01-23T04:01:58.728Z,0.9
2019-01-23T04:02:48.828Z,0.8
2019-01-23T04:03:38.295Z,0.8
2019-01-23T04:04:28.637Z,0.8
2019-01-23T04:05:19.011Z,0.8
2019-01-23T04:06:09.032Z,0.8
2019-01-23T04:06:59.107Z,0.8
2019-01-23T04:07:48.599Z,0.8
2019-01-23T04:08:39.202Z,0.8
2019-01-23T04:09:29.250Z,0.8
2019-01-23T04:10:19.065Z,0.8
2019-01-23T04:11:09.092Z,0.8
2019-01-23T04:11:59.412Z,0.8
2019-01-23T04:12:49.495Z,0.7
2019-01-23T04:13:39.539Z,0.7
2019-01-23T04:14:29.312Z,0.7
2019-01-23T04:15:19.654Z,0.7
2019-01-23T04:16:09.719Z,0.7
2019-01-23T04:16:59.739Z,0.6
2019-01-23T04:17:49.824Z,0.6
2019-01-23T04:18:39.885Z,0.6
2019-01-23T04:19:29.934Z,0.6
2019-01-23T04:20:19.455Z,0.6
2019-01-23T04:21:10.041Z,0.6
2019-01-23T04:21:59.834Z,0.5
2019-01-23T04:22:50.173Z,0.5
2019-01-23T04:23:40.236Z,0.5
2019-01-23T04:24:30.285Z,0.5
2019-01-23T04:25:20.177Z,0.5
2019-01-23T04:26:10.152Z,0.5
2019-01-23T04:27:00.163Z,0.4
2019-01-23T04:27:50.506Z,0.4
2019-01-23T04:28:40.552Z,0.4
2019-01-23T04:29:30.354Z,0.4
2019-01-23T04:30:20.393Z,0.4
2019-01-23T04:31:11.583Z,0.3
2019-01-23T04:32:00.516Z,0.3
2019-01-23T04:32:50.935Z,0.3
2019-01-23T04:33:40.933Z,0.3
2019-01-23T04:34:30.684Z,0.3
2019-01-23T04:35:20.514Z,0.3
2019-01-23T04:36:11.074Z,0.3
2019-01-23T04:37:01.159Z,0.2
2019-01-23T04:37:51.220Z,0.2
2019-01-23T04:38:41.009Z,0.1
2019-01-23T04:39:31.308Z,0.1
2019-01-23T04:40:21.107Z,0.1
2019-01-23T04:41:11.422Z,0.1
2019-01-23T04:42:01.503Z,0.1
2019-01-23T04:42:51.552Z,0
2019-01-23T04:43:41.585Z,0.1
2019-01-23T04:44:31.360Z,0
2019-01-23T04:45:21.435Z,0
2019-01-23T04:46:11.485Z,0
2019-01-23T04:47:01.822Z,0
2019-01-23T04:47:51.597Z,-0.1
2019-01-23T04:48:41.657Z,-0.1
2019-01-23T04:49:31.987Z,-0.1
2019-01-23T04:50:22.052Z,-0.1
2019-01-23T04:51:11.824Z,-0.1
2019-01-23T04:52:02.158Z,-0.1
2019-01-23T04:52:52.212Z,-0.1
2019-01-23T04:53:41.987Z,-0.2
2019-01-23T04:54:32.322Z,-0.2
2019-01-23T04:55:22.115Z,-0.2
2019-01-23T04:56:12.175Z,-0.2
2019-01-23T04:57:02.558Z,-0.2
2019-01-23T04:57:52.589Z,-0.3
2019-01-23T04:58:42.347Z,-0.3
2019-01-23T04:59:32.665Z,-0.3
2019-01-23T05:00:22.739Z,-0.3
2019-01-23T05:01:12.805Z,-0.3
2019-01-23T05:02:02.905Z,-0.3
2019-01-23T05:02:53.295Z,-0.3
2019-01-23T05:03:42.669Z,-0.3
2019-01-23T05:04:33.014Z,-0.4
2019-01-23T05:05:23.065Z,-0.4
2019-01-23T05:06:12.844Z,-0.4
2019-01-23T05:07:03.190Z,-0.4
2019-01-23T05:07:53.007Z,-0.4
2019-01-23T05:08:43.021Z,-0.4
2019-01-23T05:09:33.344Z,-0.4
2019-01-23T05:10:23.129Z,-0.4
2019-01-23T05:11:13.482Z,-0.4
2019-01-23T05:12:03.303Z,-0.4
2019-01-23T05:12:53.646Z,-0.4
2019-01-23T05:13:43.629Z,-0.4
2019-01-23T05:14:33.189Z,-0.5
2019-01-23T05:15:23.744Z,-0.5
2019-01-23T05:16:13.798Z,-0.5
2019-01-23T05:17:03.309Z,-0.5
2019-01-23T05:17:53.968Z,-0.5
2019-01-23T05:18:43.731Z,-0.6
2019-01-23T05:19:34.029Z,-0.6
2019-01-23T05:20:24.113Z,-0.6
2019-01-23T05:21:14.173Z,-0.6
2019-01-23T05:22:04.214Z,-0.6
2019-01-23T05:22:53.993Z,-0.6
2019-01-23T05:23:44.323Z,-0.7
2019-01-23T05:24:34.454Z,-0.7
2019-01-23T05:25:24.460Z,-0.7
2019-01-23T05:26:14.208Z,-0.8
2019-01-23T05:27:04.555Z,-0.8
2019-01-23T05:27:54.633Z,-0.8
2019-01-23T05:28:44.665Z,-0.7
2019-01-23T05:29:34.720Z,-0.8
2019-01-23T05:30:24.793Z,-0.8
2019-01-23T05:31:14.875Z,-0.8
2019-01-23T05:32:05.298Z,-0.8
2019-01-23T05:32:54.985Z,-0.8
2019-01-23T05:33:44.737Z,-0.8
2019-01-23T05:34:35.131Z,-0.8
2019-01-23T05:35:25.163Z,-0.8
2019-01-23T05:36:15.188Z,-0.8
2019-01-23T05:37:04.953Z,-0.8
2019-01-23T05:37:54.732Z,-0.8
2019-01-23T05:38:45.352Z,-0.9
2019-01-23T05:39:35.112Z,-0.9
2019-01-23T05:40:25.457Z,-0.9
2019-01-23T05:41:14.962Z,-0.9
2019-01-23T05:57:06.320Z,-0.9
2019-01-23T06:00:26.822Z,-0.9
2019-01-23T06:01:16.305Z,-0.9
2019-01-23T06:04:36.816Z,-1
2019-01-23T06:09:55.168Z,-0.9
2019-01-23T06:10:45.215Z,-0.9
2019-01-23T06:11:35.265Z,-0.9
2019-01-23T06:12:25.377Z,-0.9
2019-01-23T06:13:15.173Z,-0.9
2019-01-23T06:14:05.434Z,-0.9
2019-01-23T06:14:55.514Z,-0.9
2019-01-23T06:15:45.575Z,-0.9
2019-01-23T06:16:35.616Z,-0.9
2019-01-23T06:17:25.662Z,-0.9
2019-01-23T06:18:15.722Z,-0.8
2019-01-23T06:19:05.787Z,-0.8
2019-01-23T06:19:55.837Z,-0.8
2019-01-23T06:20:45.938Z,-0.8
2019-01-23T06:21:35.669Z,-0.8
2019-01-23T06:22:26.009Z,-0.8
2019-01-23T06:23:15.501Z,-0.8
2019-01-23T06:24:05.861Z,-0.8
2019-01-23T06:24:56.181Z,-0.8
2019-01-23T06:25:46.294Z,-0.8
2019-01-23T06:26:36.291Z,-0.8
2019-01-23T06:27:26.356Z,-0.8
2019-01-23T06:28:16.423Z,-0.8
2019-01-23T06:29:06.189Z,-0.7
2019-01-23T06:29:56.534Z,-0.7
2019-01-23T06:30:46.583Z,-0.7
2019-01-23T06:31:38.047Z,-0.6
2019-01-23T06:32:26.419Z,-0.6
2019-01-23T06:33:16.776Z,-0.6
2019-01-23T06:34:06.789Z,-0.6
2019-01-23T06:34:56.847Z,-0.6
2019-01-23T06:35:46.919Z,-0.6
2019-01-23T06:36:36.684Z,-0.6
2019-01-23T06:37:27.036Z,-0.5
2019-01-23T06:38:17.077Z,-0.5
2019-01-23T06:39:06.864Z,-0.5
2019-01-23T06:39:56.912Z,-0.4
2019-01-23T06:40:46.970Z,-0.4
2019-01-23T06:41:37.025Z,-0.4
2019-01-23T06:42:27.368Z,-0.4
2019-01-23T06:43:17.148Z,-0.4
2019-01-23T06:44:07.193Z,-0.3
2019-01-23T06:44:57.533Z,-0.3
2019-01-23T06:45:47.585Z,-0.3
2019-01-23T06:46:37.365Z,-0.3
2019-01-23T06:47:27.693Z,-0.3
2019-01-23T06:48:17.482Z,-0.3
2019-01-23T06:49:07.843Z,-0.2
2019-01-23T06:49:59.356Z,-0.1
2019-01-23T06:50:47.935Z,-0.1
2019-01-23T06:51:38.002Z,-0.1
2019-01-23T06:52:27.490Z,-0.1
2019-01-23T06:53:18.102Z,0
2019-01-23T06:54:07.880Z,0
2019-01-23T06:54:57.967Z,0.1
2019-01-23T06:55:48.262Z,0.1
2019-01-23T06:56:38.362Z,0.2
2019-01-23T06:57:28.110Z,0.2
2019-01-23T06:58:18.437Z,0.3
2019-01-23T06:59:08.490Z,0.3
2019-01-23T06:59:58.562Z,0.4
2019-01-23T07:00:48.605Z,0.4
2019-01-23T07:01:38.667Z,0.5
2019-01-23T07:02:28.722Z,0.6
2019-01-23T07:03:18.582Z,0.6
2019-01-23T07:04:08.847Z,0.7
2019-01-23T07:06:34.881Z,0.9
2019-01-23T07:07:24.662Z,1
2019-01-23T07:08:14.734Z,1.1
2019-01-23T07:09:05.096Z,1.1
2019-01-23T07:09:55.101Z,1.2
2019-01-23T07:10:45.159Z,1.3
2019-01-23T07:11:34.664Z,1.4
2019-01-23T07:12:25.279Z,1.4
2019-01-23T07:13:15.334Z,1.5
2019-01-23T07:14:05.398Z,1.6
2019-01-23T07:14:55.479Z,1.7
2019-01-23T07:15:45.233Z,1.8
2019-01-23T07:16:35.562Z,1.8
2019-01-23T07:17:25.326Z,1.9
2019-01-23T07:18:15.673Z,2
2019-01-23T07:19:05.506Z,2.1
2019-01-23T07:19:55.518Z,2.1
2019-01-23T07:20:45.557Z,2.2
2019-01-23T07:21:35.631Z,2.3
2019-01-23T07:22:25.963Z,2.3
2019-01-23T07:23:16.018Z,2.4
2019-01-23T07:24:06.071Z,2.5
2019-01-23T07:24:56.121Z,2.6
2019-01-23T07:25:46.186Z,2.6
2019-01-23T07:26:36.006Z,2.7
2019-01-23T07:27:26.295Z,2.8
2019-01-23T07:28:16.086Z,2.8
2019-01-23T07:29:06.415Z,2.9
2019-01-23T07:29:56.455Z,2.9
2019-01-23T07:30:46.517Z,3
2019-01-23T07:31:36.594Z,3.1
2019-01-23T07:32:26.633Z,3.1
2019-01-23T07:33:16.426Z,3.1
2019-01-23T07:34:06.757Z,3.2
2019-01-23T07:34:56.803Z,3.2
2019-01-23T07:35:46.882Z,3.3
2019-01-23T07:36:36.930Z,3.3
2019-01-23T07:37:26.973Z,3.3
2019-01-23T07:38:17.029Z,3.4
2019-01-23T07:39:07.090Z,3.4
2019-01-23T07:39:57.149Z,3.5
2019-01-23T07:40:46.935Z,3.5
2019-01-23T07:41:37.259Z,3.6
2019-01-23T07:42:27.314Z,3.6
2019-01-23T07:43:17.089Z,3.6
2019-01-23T07:44:07.154Z,3.7
2019-01-23T07:44:57.197Z,3.8
2019-01-23T07:45:47.544Z,3.8
2019-01-23T07:46:37.589Z,3.8
2019-01-23T07:47:27.107Z,3.9
2019-01-23T07:48:19.022Z,3.9
2019-01-23T07:49:07.774Z,4
2019-01-23T07:49:57.824Z,4.1
2019-01-23T07:50:47.654Z,4.1
2019-01-23T07:51:37.971Z,4.3
2019-01-23T07:52:27.433Z,4.3
2019-01-23T07:53:17.771Z,4.4
2019-01-23T07:54:08.101Z,4.5
2019-01-23T07:54:58.171Z,4.7
2019-01-23T07:55:48.226Z,4.8
2019-01-23T07:56:38.273Z,4.9
2019-01-23T07:57:28.055Z,5.1
2019-01-23T07:58:18.386Z,5.2
2019-01-23T07:59:09.877Z,5.3
2019-01-23T07:59:58.496Z,5.4
2019-01-23T08:00:48.274Z,5.6
2019-01-23T08:01:38.348Z,5.7
2019-01-23T08:02:28.692Z,5.9
2019-01-23T08:03:18.733Z,6.1
2019-01-23T08:04:08.505Z,6.3
2019-01-23T08:04:58.563Z,6.4
2019-01-23T08:05:48.623Z,6.6
2019-01-23T08:06:38.703Z,6.8
2019-01-23T08:07:29.013Z,7
2019-01-23T08:08:18.780Z,7.2
2019-01-23T08:09:09.058Z,7.3
2019-01-23T08:09:59.181Z,7.5
2019-01-23T08:10:48.955Z,7.6
2019-01-23T08:11:39.020Z,7.8
2019-01-23T08:12:29.354Z,8
2019-01-23T08:13:19.950Z,8.2
2019-01-23T08:14:09.473Z,8.4
2019-01-23T08:14:59.518Z,8.6
2019-01-23T08:15:49.582Z,8.7
2019-01-23T08:16:39.640Z,8.9
2019-01-23T08:17:35.380Z,9
2019-01-23T08:18:19.742Z,9.1
2019-01-23T08:19:09.799Z,9.3
2019-01-23T08:19:59.582Z,9.3
2019-01-23T08:20:49.919Z,9.5
2019-01-23T08:21:39.969Z,9.6
2019-01-23T08:22:30.018Z,9.6
2019-01-23T08:23:20.089Z,9.7
2019-01-23T08:24:09.867Z,9.8
2019-01-23T08:25:00.257Z,9.9
2019-01-23T08:25:50.257Z,10.1
2019-01-23T08:26:40.048Z,10.3
2019-01-23T08:27:30.378Z,10.9
2019-01-23T08:28:20.422Z,11.8
2019-01-23T08:29:10.490Z,12.9
2019-01-23T08:30:00.266Z,13.9
2019-01-23T08:30:50.594Z,14.8
2019-01-23T08:31:40.641Z,15.5
2019-01-23T08:32:30.734Z,16.1
2019-01-23T08:33:20.779Z,16.5
2019-01-23T08:34:10.276Z,16.9
2019-01-23T08:35:00.885Z,17.4
2019-01-23T08:35:50.394Z,18.1
2019-01-23T08:36:40.711Z,19.1
2019-01-23T08:37:31.061Z,20.4
2019-01-23T08:38:21.118Z,22.1
2019-01-23T08:39:10.921Z,24.1
2019-01-23T08:40:01.300Z,26.4
2019-01-23T08:40:50.994Z,28.7
2019-01-23T08:41:41.051Z,31
2019-01-23T08:42:31.387Z,33
2019-01-23T08:43:21.453Z,34.6
2019-01-23T08:44:11.226Z,36.1
2019-01-23T08:45:01.695Z,37.6
2019-01-23T08:45:51.352Z,38.9
2019-01-23T08:46:41.410Z,40.3
2019-01-23T08:47:31.723Z,41.5
2019-01-23T08:48:21.775Z,42.3
2019-01-23T08:49:11.570Z,42.8
2019-01-23T08:50:01.918Z,43
2019-01-23T08:50:51.958Z,43.2
2019-01-23T08:51:42.022Z,43.3
2019-01-23T08:52:32.075Z,43.6
2019-01-23T08:53:22.123Z,43.8
2019-01-23T08:54:12.195Z,43.8
2019-01-23T08:55:01.980Z,43.8
2019-01-23T08:55:56.353Z,43.6
2019-01-23T08:56:42.360Z,43.4
2019-01-23T08:57:32.420Z,43.2
2019-01-23T08:58:22.483Z,42.9
2019-01-23T08:59:12.523Z,42.8
2019-01-23T09:00:02.404Z,42.6
2019-01-23T09:00:52.642Z,42.5
2019-01-23T09:01:42.759Z,42.3
2019-01-23T09:02:32.744Z,42.2
2019-01-23T09:03:22.544Z,41.9
2019-01-23T09:04:12.877Z,41.5
2019-01-23T09:05:02.662Z,41.3
2019-01-23T09:05:52.762Z,41
2019-01-23T09:06:43.047Z,40.8
2019-01-23T09:07:33.087Z,40.8
2019-01-23T09:08:22.892Z,40.8
2019-01-23T09:09:13.196Z,40.8
2019-01-23T09:10:02.998Z,40.8
2019-01-23T09:10:53.046Z,40.7
2019-01-23T09:11:43.376Z,41
2019-01-23T09:12:33.441Z,41.2
2019-01-23T09:13:23.246Z,41.5
2019-01-23T09:14:13.544Z,42.2
2019-01-23T09:15:03.328Z,43.1
2019-01-23T09:15:53.661Z,44.2
2019-01-23T09:16:43.766Z,45.6
2019-01-23T09:17:33.234Z,47
2019-01-23T09:18:23.868Z,48.3
2019-01-23T09:19:13.336Z,49.4
2019-01-23T09:20:03.958Z,50.1
2019-01-23T09:20:53.736Z,50.8
2019-01-23T09:21:43.788Z,51.8
2019-01-23T09:22:34.121Z,52.9
2019-01-23T09:23:24.168Z,54.4
2019-01-23T09:24:14.233Z,55.6
2019-01-23T09:25:04.301Z,56.8
2019-01-23T09:25:54.070Z,58.1
2019-01-23T09:26:44.135Z,59
2019-01-23T09:27:34.476Z,59.4
2019-01-23T09:28:24.517Z,59.7
2019-01-23T09:29:14.322Z,60
2019-01-23T09:30:04.643Z,60.3
2019-01-23T09:30:56.578Z,60.4
2019-01-23T09:31:44.745Z,60.9
2019-01-23T09:32:34.810Z,61.4
2019-01-23T09:33:24.873Z,61.9
2019-01-23T09:34:14.640Z,62.3
2019-01-23T09:35:04.772Z,62.4
2019-01-23T09:35:54.752Z,62.5
2019-01-23T09:36:44.825Z,62.4
2019-01-23T09:37:35.142Z,62.2
2019-01-23T09:38:24.959Z,61.8
2019-01-23T09:39:15.260Z,61.6
2019-01-23T09:40:05.314Z,61.5
2019-01-23T09:40:55.112Z,61.4
2019-01-23T09:41:45.165Z,61.3
2019-01-23T09:42:35.507Z,61.1
2019-01-23T09:43:25.280Z,60.9
2019-01-23T09:44:15.607Z,60.8
2019-01-23T09:45:05.390Z,60.4
2019-01-23T09:45:55.717Z,60.1
2019-01-23T09:46:45.782Z,59.8
2019-01-23T09:47:35.078Z,59.5
2019-01-23T09:48:25.891Z,59.3
2019-01-23T09:49:15.951Z,58.8
2019-01-23T09:50:06.005Z,58.4
2019-01-23T09:50:56.065Z,58.2
2019-01-23T09:51:46.156Z,58.3
2019-01-23T09:52:36.166Z,58.3
2019-01-23T09:53:26.386Z,58.4
2019-01-23T09:54:16.286Z,58.7
2019-01-23T09:55:06.069Z,59.3
2019-01-23T09:55:56.401Z,59.9
2019-01-23T09:56:45.906Z,60.6
2019-01-23T09:57:36.616Z,61.3
2019-01-23T09:58:26.576Z,61.9
2019-01-23T09:59:16.623Z,62.7
2019-01-23T10:00:06.691Z,63.3
2019-01-23T10:01:02.262Z,63.9
2019-01-23T10:01:46.802Z,64.3
2019-01-23T10:02:36.868Z,64.3
2019-01-23T10:03:26.915Z,64.3
2019-01-23T10:04:16.693Z,64.1
2019-01-23T10:05:07.035Z,63.9
2019-01-23T10:07:34.720Z,64.1
2019-01-23T10:08:24.492Z,63.6
2019-01-23T10:09:14.560Z,63.2
2019-01-23T10:10:04.940Z,62.8
2019-01-23T10:10:54.957Z,62.4
2019-01-23T10:11:44.733Z,62.1
2019-01-23T10:12:34.555Z,61.6
2019-01-23T10:13:24.565Z,60.9
2019-01-23T10:14:15.182Z,60.3
2019-01-23T10:15:04.674Z,59.4
2019-01-23T10:15:55.009Z,58.8
2019-01-23T10:16:45.359Z,58.1
2019-01-23T10:17:35.402Z,57.4
2019-01-23T10:18:25.190Z,56.6
2019-01-23T10:19:15.529Z,55.8
2019-01-23T10:20:05.594Z,55.1
2019-01-23T10:20:55.634Z,54.5
2019-01-23T10:21:45.727Z,54.2
2019-01-23T10:22:35.464Z,54
2019-01-23T10:23:25.520Z,53.9
2019-01-23T10:24:15.587Z,53.6
2019-01-23T10:25:05.359Z,53.4
2019-01-23T10:25:55.144Z,53.2
2019-01-23T10:26:46.032Z,52.7
2019-01-23T10:27:36.080Z,52.1
2019-01-23T10:28:27.408Z,51.5
2019-01-23T10:29:15.925Z,50.9
2019-01-23T10:30:06.266Z,50.3
2019-01-23T10:30:56.039Z,49.8
2019-01-23T10:31:45.864Z,49.3
2019-01-23T10:32:35.880Z,48.9
2019-01-23T10:33:26.549Z,48.4
2019-01-23T10:34:16.280Z,47.8
2019-01-23T10:35:06.064Z,47.3
2019-01-23T10:35:56.701Z,47.1
2019-01-23T10:36:46.736Z,46.9
2019-01-23T10:37:36.231Z,46.9
2019-01-23T10:38:26.793Z,46.9
2019-01-23T10:39:16.613Z,47.1
2019-01-23T10:40:06.708Z,47.6
2019-01-23T10:40:57.016Z,48.5
2019-01-23T10:41:46.803Z,49.3
2019-01-23T10:42:37.121Z,50.3
2019-01-23T10:43:26.365Z,51.4
2019-01-23T10:44:16.694Z,52.5
2019-01-23T10:45:07.018Z,53.8
2019-01-23T10:45:57.072Z,55
2019-01-23T10:46:46.845Z,56.2
2019-01-23T10:47:37.191Z,57.3
2019-01-23T10:48:27.550Z,58.4
2019-01-23T10:49:17.305Z,59.7
2019-01-23T10:50:07.375Z,60.3
2019-01-23T10:50:57.717Z,60.8
2019-01-23T10:51:47.762Z,61.1
2019-01-23T10:52:37.807Z,61.1
2019-01-23T10:53:27.310Z,60.9
2019-01-23T10:54:17.962Z,60.9
2019-01-23T10:55:07.987Z,60.9
2019-01-23T10:55:58.027Z,60.8
2019-01-23T10:56:47.817Z,60.9
2019-01-23T10:57:38.144Z,60.9
2019-01-23T10:58:27.657Z,61.3
2019-01-23T10:59:18.261Z,61.5
2019-01-23T11:00:08.054Z,61.6
2019-01-23T11:00:58.390Z,61.2
2019-01-23T11:01:48.161Z,60.6
2019-01-23T11:02:38.505Z,60.1
2019-01-23T11:03:28.549Z,59.4
2019-01-23T11:04:18.707Z,58.8
2019-01-23T11:05:08.384Z,58.1
2019-01-23T11:05:58.722Z,57.6
2019-01-23T11:06:48.789Z,56.9
2019-01-23T11:07:38.834Z,56
2019-01-23T11:08:28.601Z,55.2
2019-01-23T11:09:19.346Z,54.4
2019-01-23T11:10:08.727Z,53.5
2019-01-23T11:10:59.066Z,52.8
2019-01-23T11:11:48.651Z,52.1
2019-01-23T11:12:38.953Z,51.3
2019-01-23T11:13:28.678Z,50.5
2019-01-23T11:14:18.787Z,49.5
2019-01-23T11:15:09.366Z,48.4
2019-01-23T11:16:00.122Z,47.3
2019-01-23T11:16:49.191Z,46.2
2019-01-23T11:17:39.258Z,45.4
2019-01-23T11:18:29.593Z,44.6
2019-01-23T11:19:19.743Z,44
2019-01-23T11:20:09.698Z,43.5
2019-01-23T11:20:59.753Z,43.1
2019-01-23T11:21:49.547Z,42.8
2019-01-23T11:22:39.880Z,42.4
2019-01-23T11:23:29.700Z,42.2
2019-01-23T11:24:19.490Z,42
2019-01-23T11:25:09.763Z,41.6
2019-01-23T11:25:59.823Z,41.4
2019-01-23T11:26:49.903Z,41
2019-01-23T11:27:40.225Z,40.7
2019-01-23T11:28:29.982Z,40.3
2019-01-23T11:29:20.327Z,40
2019-01-23T11:30:10.117Z,39.6
2019-01-23T11:31:00.175Z,39.1
2019-01-23T11:31:50.242Z,38.8
2019-01-23T11:32:40.037Z,38.4
2019-01-23T11:33:30.632Z,38.1
2019-01-23T11:34:20.408Z,37.9
2019-01-23T11:35:10.251Z,37.6
2019-01-23T11:36:00.495Z,37.3
2019-01-23T11:36:50.577Z,37.1
2019-01-23T11:37:40.667Z,36.8
2019-01-23T11:38:30.689Z,36.5
2019-01-23T11:39:21.016Z,36.1
2019-01-23T11:40:10.797Z,35.7
2019-01-23T11:41:01.134Z,35.4
2019-01-23T11:41:50.916Z,35.1
2019-01-23T11:42:40.974Z,34.9
2019-01-23T11:43:31.294Z,34.7
2019-01-23T11:44:21.362Z,34.4
2019-01-23T11:45:11.137Z,34.3
2019-01-23T11:46:01.479Z,34.1
2019-01-23T11:46:50.986Z,33.9
2019-01-23T11:47:41.298Z,33.6
2019-01-23T11:48:31.363Z,33.3
2019-01-23T11:49:21.428Z,32.9
2019-01-23T11:50:11.760Z,32.6
2019-01-23T11:51:01.821Z,32.3